sensor_id;sensor_type;location;lat;lon;timestamp;temperature;humidity
7846;DHT22;3968;51.424;6.788;2022-08-21T00:00:43;18.90;99.90
7846;DHT22;3968;51.424;6.788;2022-08-21T00:03:12;18.80;99.90
7846;DHT22;3968;51.424;6.788;2022-08-21T00:05:41;18.80;99.90
7846;DHT22;3968;51.424;6.788;2022-08-21T00:08:07;18.80;99.90
7846;DHT22;3968;51.424;6.788;2022-08-21T00:10:33;18.80;99.90
7846;DHT22;3968;51.424;6.788;2022-08-21T00:13:01;18.80;99.90
7846;DHT22;3968;51.424;6.788;2022-08-21T00:15:29;18.80;99.90
7846;DHT22;3968;51.424;6.788;2022-08-21T00:17:56;18.80;99.90
7846;DHT22;3968;51.424;6.788;2022-08-21T00:20:23;18.80;99.90
7846;DHT22;3968;51.424;6.788;2022-08-21T00:22:49;18.80;99.90
7846;DHT22;3968;51.424;6.788;2022-08-21T00:25:16;18.80;99.90
7846;DHT22;3968;51.424;6.788;2022-08-21T00:27:42;18.80;99.90
7846;DHT22;3968;51.424;6.788;2022-08-21T00:30:10;18.80;99.90
7846;DHT22;3968;51.424;6.788;2022-08-21T00:32:37;18.60;99.90
7846;DHT22;3968;51.424;6.788;2022-08-21T00:35:05;18.50;99.90
7846;DHT22;3968;51.424;6.788;2022-08-21T00:37:31;18.50;99.90
7846;DHT22;3968;51.424;6.788;2022-08-21T00:39:57;18.50;99.90
7846;DHT22;3968;51.424;6.788;2022-08-21T00:42:22;18.40;99.90
7846;DHT22;3968;51.424;6.788;2022-08-21T00:44:49;18.30;99.90
7846;DHT22;3968;51.424;6.788;2022-08-21T00:47:16;18.30;99.90
7846;DHT22;3968;51.424;6.788;2022-08-21T00:49:42;18.30;99.90
7846;DHT22;3968;51.424;6.788;2022-08-21T00:52:12;18.20;99.90
7846;DHT22;3968;51.424;6.788;2022-08-21T00:54:41;18.20;99.90
7846;DHT22;3968;51.424;6.788;2022-08-21T00:57:13;18.10;99.90
7846;DHT22;3968;51.424;6.788;2022-08-21T00:59:40;18.10;99.90
7846;DHT22;3968;51.424;6.788;2022-08-21T01:02:08;18.00;99.90
7846;DHT22;3968;51.424;6.788;2022-08-21T01:04:35;17.90;99.90
7846;DHT22;3968;51.424;6.788;2022-08-21T01:07:02;17.80;99.90
7846;DHT22;3968;51.424;6.788;2022-08-21T01:09:28;17.70;99.90
7846;DHT22;3968;51.424;6.788;2022-08-21T01:11:54;17.60;99.90
7846;DHT22;3968;51.424;6.788;2022-08-21T01:14:20;17.60;99.90
7846;DHT22;3968;51.424;6.788;2022-08-21T01:16:48;17.50;99.90
7846;DHT22;3968;51.424;6.788;2022-08-21T01:19:16;17.50;99.90
7846;DHT22;3968;51.424;6.788;2022-08-21T01:21:42;17.50;99.90
7846;DHT22;3968;51.424;6.788;2022-08-21T01:24:08;17.40;99.90
7846;DHT22;3968;51.424;6.788;2022-08-21T01:26:35;17.40;99.90
7846;DHT22;3968;51.424;6.788;2022-08-21T01:29:13;17.40;99.90
7846;DHT22;3968;51.424;6.788;2022-08-21T01:31:41;17.40;99.90
7846;DHT22;3968;51.424;6.788;2022-08-21T01:34:07;17.30;99.90
7846;DHT22;3968;51.424;6.788;2022-08-21T01:36:33;17.30;99.90
7846;DHT22;3968;51.424;6.788;2022-08-21T01:38:59;17.30;99.90
7846;DHT22;3968;51.424;6.788;2022-08-21T01:41:25;17.30;99.90
7846;DHT22;3968;51.424;6.788;2022-08-21T01:43:50;17.30;99.90
7846;DHT22;3968;51.424;6.788;2022-08-21T01:46:16;17.30;99.90
7846;DHT22;3968;51.424;6.788;2022-08-21T01:48:42;17.30;99.90
7846;DHT22;3968;51.424;6.788;2022-08-21T01:51:08;17.30;99.90
7846;DHT22;3968;51.424;6.788;2022-08-21T01:53:35;17.20;99.90
7846;DHT22;3968;51.424;6.788;2022-08-21T01:56:03;17.20;99.90
7846;DHT22;3968;51.424;6.788;2022-08-21T01:58:29;17.20;99.90
7846;DHT22;3968;51.424;6.788;2022-08-21T02:00:55;17.10;99.90
7846;DHT22;3968;51.424;6.788;2022-08-21T02:03:21;17.00;99.90
7846;DHT22;3968;51.424;6.788;2022-08-21T02:05:46;17.00;99.90
7846;DHT22;3968;51.424;6.788;2022-08-21T02:08:12;17.00;99.90
7846;DHT22;3968;51.424;6.788;2022-08-21T02:10:38;17.00;99.90
7846;DHT22;3968;51.424;6.788;2022-08-21T02:13:04;17.00;99.90
7846;DHT22;3968;51.424;6.788;2022-08-21T02:15:30;16.90;99.90
7846;DHT22;3968;51.424;6.788;2022-08-21T02:18:00;16.90;99.90
7846;DHT22;3968;51.424;6.788;2022-08-21T02:20:39;16.90;99.90
7846;DHT22;3968;51.424;6.788;2022-08-21T02:23:06;16.90;99.90
7846;DHT22;3968;51.424;6.788;2022-08-21T02:25:33;16.90;99.90
7846;DHT22;3968;51.424;6.788;2022-08-21T02:28:02;16.90;99.90
7846;DHT22;3968;51.424;6.788;2022-08-21T02:30:34;16.90;99.90
7846;DHT22;3968;51.424;6.788;2022-08-21T02:33:01;16.90;99.90
7846;DHT22;3968;51.424;6.788;2022-08-21T02:35:27;16.80;99.90
7846;DHT22;3968;51.424;6.788;2022-08-21T02:38:02;16.80;99.90
7846;DHT22;3968;51.424;6.788;2022-08-21T02:40:34;16.80;99.90
7846;DHT22;3968;51.424;6.788;2022-08-21T02:43:01;16.80;99.90
7846;DHT22;3968;51.424;6.788;2022-08-21T02:45:28;16.80;99.90
7846;DHT22;3968;51.424;6.788;2022-08-21T02:48:03;16.70;99.90
7846;DHT22;3968;51.424;6.788;2022-08-21T02:50:39;16.70;99.90
7846;DHT22;3968;51.424;6.788;2022-08-21T02:53:07;16.70;99.90
7846;DHT22;3968;51.424;6.788;2022-08-21T02:55:35;16.70;99.90
7846;DHT22;3968;51.424;6.788;2022-08-21T02:58:03;16.70;99.90
7846;DHT22;3968;51.424;6.788;2022-08-21T03:00:30;16.60;99.90
7846;DHT22;3968;51.424;6.788;2022-08-21T03:02:57;16.60;99.90
7846;DHT22;3968;51.424;6.788;2022-08-21T03:05:24;16.60;99.90
7846;DHT22;3968;51.424;6.788;2022-08-21T03:07:51;16.60;99.90
7846;DHT22;3968;51.424;6.788;2022-08-21T03:10:18;16.50;99.90
7846;DHT22;3968;51.424;6.788;2022-08-21T03:12:45;16.50;99.90
7846;DHT22;3968;51.424;6.788;2022-08-21T03:15:13;16.50;99.90
7846;DHT22;3968;51.424;6.788;2022-08-21T03:17:39;16.40;99.90
7846;DHT22;3968;51.424;6.788;2022-08-21T03:20:06;16.30;99.90
7846;DHT22;3968;51.424;6.788;2022-08-21T03:22:32;16.20;99.90
7846;DHT22;3968;51.424;6.788;2022-08-21T03:24:59;16.20;99.90
7846;DHT22;3968;51.424;6.788;2022-08-21T03:27:25;16.20;99.90
7846;DHT22;3968;51.424;6.788;2022-08-21T03:29:53;16.20;99.90
7846;DHT22;3968;51.424;6.788;2022-08-21T03:32:18;16.20;99.90
7846;DHT22;3968;51.424;6.788;2022-08-21T03:34:44;16.20;99.90
7846;DHT22;3968;51.424;6.788;2022-08-21T03:37:10;16.10;99.90
7846;DHT22;3968;51.424;6.788;2022-08-21T03:39:36;16.10;99.90
7846;DHT22;3968;51.424;6.788;2022-08-21T03:42:02;16.10;99.90
7846;DHT22;3968;51.424;6.788;2022-08-21T03:44:28;16.00;99.90
7846;DHT22;3968;51.424;6.788;2022-08-21T03:46:55;16.00;99.90
7846;DHT22;3968;51.424;6.788;2022-08-21T03:49:21;16.00;99.90
7846;DHT22;3968;51.424;6.788;2022-08-21T03:51:47;15.90;99.90
7846;DHT22;3968;51.424;6.788;2022-08-21T03:54:13;15.90;99.90
7846;DHT22;3968;51.424;6.788;2022-08-21T03:56:38;15.90;99.90
7846;DHT22;3968;51.424;6.788;2022-08-21T03:59:05;15.90;99.90
7846;DHT22;3968;51.424;6.788;2022-08-21T04:01:31;15.90;99.90
7846;DHT22;3968;51.424;6.788;2022-08-21T04:03:56;15.80;99.90
7846;DHT22;3968;51.424;6.788;2022-08-21T04:06:22;15.80;99.90
7846;DHT22;3968;51.424;6.788;2022-08-21T04:08:48;15.80;99.90
7846;DHT22;3968;51.424;6.788;2022-08-21T04:11:14;15.80;99.90
7846;DHT22;3968;51.424;6.788;2022-08-21T04:13:40;15.80;99.90
7846;DHT22;3968;51.424;6.788;2022-08-21T04:16:06;15.80;99.90
7846;DHT22;3968;51.424;6.788;2022-08-21T04:18:32;15.80;99.90
7846;DHT22;3968;51.424;6.788;2022-08-21T04:20:59;15.80;99.90
7846;DHT22;3968;51.424;6.788;2022-08-21T04:23:26;15.80;99.90
7846;DHT22;3968;51.424;6.788;2022-08-21T04:25:53;15.80;99.90
7846;DHT22;3968;51.424;6.788;2022-08-21T04:28:20;15.90;99.90
7846;DHT22;3968;51.424;6.788;2022-08-21T04:30:46;15.90;99.90
7846;DHT22;3968;51.424;6.788;2022-08-21T04:33:12;15.90;99.90
7846;DHT22;3968;51.424;6.788;2022-08-21T04:35:37;15.90;99.90
7846;DHT22;3968;51.424;6.788;2022-08-21T04:38:03;15.90;99.90
7846;DHT22;3968;51.424;6.788;2022-08-21T04:40:29;15.90;99.90
7846;DHT22;3968;51.424;6.788;2022-08-21T04:42:58;15.90;99.90
7846;DHT22;3968;51.424;6.788;2022-08-21T04:45:32;15.90;99.90
7846;DHT22;3968;51.424;6.788;2022-08-21T04:48:00;15.90;99.90
7846;DHT22;3968;51.424;6.788;2022-08-21T04:50:50;15.80;99.90
7846;DHT22;3968;51.424;6.788;2022-08-21T04:53:20;15.80;99.90
7846;DHT22;3968;51.424;6.788;2022-08-21T04:55:48;15.80;99.90
7846;DHT22;3968;51.424;6.788;2022-08-21T04:58:16;15.70;99.90
7846;DHT22;3968;51.424;6.788;2022-08-21T05:00:44;15.70;99.90
7846;DHT22;3968;51.424;6.788;2022-08-21T05:03:10;15.60;99.90
7846;DHT22;3968;51.424;6.788;2022-08-21T05:05:36;15.60;99.90
7846;DHT22;3968;51.424;6.788;2022-08-21T05:08:03;15.50;99.90
7846;DHT22;3968;51.424;6.788;2022-08-21T05:10:29;15.50;99.90
7846;DHT22;3968;51.424;6.788;2022-08-21T05:12:57;15.50;99.90
7846;DHT22;3968;51.424;6.788;2022-08-21T05:15:23;15.50;99.90
7846;DHT22;3968;51.424;6.788;2022-08-21T05:17:48;15.40;99.90
7846;DHT22;3968;51.424;6.788;2022-08-21T05:20:16;15.40;99.90
7846;DHT22;3968;51.424;6.788;2022-08-21T05:22:42;15.40;99.90
7846;DHT22;3968;51.424;6.788;2022-08-21T05:25:09;15.40;99.90
7846;DHT22;3968;51.424;6.788;2022-08-21T05:27:35;15.50;99.90
7846;DHT22;3968;51.424;6.788;2022-08-21T05:30:01;15.50;99.90
7846;DHT22;3968;51.424;6.788;2022-08-21T05:32:27;15.50;99.90
7846;DHT22;3968;51.424;6.788;2022-08-21T05:34:53;15.50;99.90
7846;DHT22;3968;51.424;6.788;2022-08-21T05:37:20;15.60;99.90
7846;DHT22;3968;51.424;6.788;2022-08-21T05:39:45;15.60;99.90
7846;DHT22;3968;51.424;6.788;2022-08-21T05:42:11;15.70;99.90
7846;DHT22;3968;51.424;6.788;2022-08-21T05:44:37;15.80;99.90
7846;DHT22;3968;51.424;6.788;2022-08-21T05:47:07;15.90;99.90
7846;DHT22;3968;51.424;6.788;2022-08-21T05:49:34;16.00;99.90
7846;DHT22;3968;51.424;6.788;2022-08-21T05:52:00;16.00;99.90
7846;DHT22;3968;51.424;6.788;2022-08-21T05:54:26;16.10;99.90
7846;DHT22;3968;51.424;6.788;2022-08-21T05:56:52;16.10;99.90
7846;DHT22;3968;51.424;6.788;2022-08-21T05:59:18;16.20;99.90
7846;DHT22;3968;51.424;6.788;2022-08-21T06:01:44;16.30;99.90
7846;DHT22;3968;51.424;6.788;2022-08-21T06:04:11;16.40;99.90
7846;DHT22;3968;51.424;6.788;2022-08-21T06:06:37;16.40;99.90
7846;DHT22;3968;51.424;6.788;2022-08-21T06:09:04;16.50;99.90
7846;DHT22;3968;51.424;6.788;2022-08-21T06:11:30;16.50;99.90
7846;DHT22;3968;51.424;6.788;2022-08-21T06:13:57;16.60;99.90
7846;DHT22;3968;51.424;6.788;2022-08-21T06:16:25;16.70;99.90
7846;DHT22;3968;51.424;6.788;2022-08-21T06:18:51;16.70;99.90
7846;DHT22;3968;51.424;6.788;2022-08-21T06:21:17;16.90;99.90
7846;DHT22;3968;51.424;6.788;2022-08-21T06:23:44;17.00;99.90
7846;DHT22;3968;51.424;6.788;2022-08-21T06:26:11;17.00;99.90
7846;DHT22;3968;51.424;6.788;2022-08-21T06:28:37;17.00;99.90
7846;DHT22;3968;51.424;6.788;2022-08-21T06:31:21;17.10;99.90
7846;DHT22;3968;51.424;6.788;2022-08-21T06:33:47;17.20;99.90
7846;DHT22;3968;51.424;6.788;2022-08-21T06:36:13;17.30;99.90
7846;DHT22;3968;51.424;6.788;2022-08-21T06:38:39;17.30;99.90
7846;DHT22;3968;51.424;6.788;2022-08-21T06:43:31;17.50;99.90
7846;DHT22;3968;51.424;6.788;2022-08-21T06:45:57;17.50;99.90
7846;DHT22;3968;51.424;6.788;2022-08-21T06:48:23;17.60;99.90
7846;DHT22;3968;51.424;6.788;2022-08-21T06:50:49;17.70;99.90
7846;DHT22;3968;51.424;6.788;2022-08-21T06:53:20;17.80;99.90
7846;DHT22;3968;51.424;6.788;2022-08-21T06:55:47;17.90;99.90
7846;DHT22;3968;51.424;6.788;2022-08-21T06:58:13;18.00;99.90
7846;DHT22;3968;51.424;6.788;2022-08-21T07:00:42;18.00;99.90
7846;DHT22;3968;51.424;6.788;2022-08-21T07:03:15;18.10;99.90
7846;DHT22;3968;51.424;6.788;2022-08-21T07:05:41;18.20;99.90
7846;DHT22;3968;51.424;6.788;2022-08-21T07:08:07;18.30;99.90
7846;DHT22;3968;51.424;6.788;2022-08-21T07:10:32;18.40;99.90
7846;DHT22;3968;51.424;6.788;2022-08-21T07:12:58;18.50;99.90
7846;DHT22;3968;51.424;6.788;2022-08-21T07:15:23;18.50;99.90
7846;DHT22;3968;51.424;6.788;2022-08-21T07:17:49;18.70;99.90
7846;DHT22;3968;51.424;6.788;2022-08-21T07:20:15;18.70;99.90
7846;DHT22;3968;51.424;6.788;2022-08-21T07:22:41;18.80;99.90
7846;DHT22;3968;51.424;6.788;2022-08-21T07:25:07;18.80;99.90
7846;DHT22;3968;51.424;6.788;2022-08-21T07:27:33;19.00;99.90
7846;DHT22;3968;51.424;6.788;2022-08-21T07:29:59;19.20;99.90
7846;DHT22;3968;51.424;6.788;2022-08-21T07:32:25;19.20;99.90
7846;DHT22;3968;51.424;6.788;2022-08-21T07:34:50;19.30;99.90
7846;DHT22;3968;51.424;6.788;2022-08-21T07:37:16;19.40;99.90
7846;DHT22;3968;51.424;6.788;2022-08-21T07:39:42;19.50;99.90
7846;DHT22;3968;51.424;6.788;2022-08-21T07:42:07;19.70;99.90
7846;DHT22;3968;51.424;6.788;2022-08-21T07:44:33;19.50;99.90
7846;DHT22;3968;51.424;6.788;2022-08-21T07:47:00;19.40;99.90
7846;DHT22;3968;51.424;6.788;2022-08-21T07:49:27;19.50;99.90
7846;DHT22;3968;51.424;6.788;2022-08-21T07:51:53;19.50;99.90
7846;DHT22;3968;51.424;6.788;2022-08-21T07:54:18;19.60;99.90
7846;DHT22;3968;51.424;6.788;2022-08-21T07:56:44;19.70;99.90
7846;DHT22;3968;51.424;6.788;2022-08-21T07:59:11;19.80;99.90
7846;DHT22;3968;51.424;6.788;2022-08-21T08:01:36;19.90;99.90
7846;DHT22;3968;51.424;6.788;2022-08-21T08:04:02;20.00;99.90
7846;DHT22;3968;51.424;6.788;2022-08-21T08:06:28;20.10;99.90
7846;DHT22;3968;51.424;6.788;2022-08-21T08:08:54;20.30;99.90
7846;DHT22;3968;51.424;6.788;2022-08-21T08:11:20;20.60;99.90
7846;DHT22;3968;51.424;6.788;2022-08-21T08:13:48;20.70;99.90
7846;DHT22;3968;51.424;6.788;2022-08-21T08:16:14;20.90;99.90
7846;DHT22;3968;51.424;6.788;2022-08-21T08:18:40;21.00;99.90
7846;DHT22;3968;51.424;6.788;2022-08-21T08:21:08;21.00;99.90
7846;DHT22;3968;51.424;6.788;2022-08-21T08:23:34;20.90;99.90
7846;DHT22;3968;51.424;6.788;2022-08-21T08:26:00;20.90;99.90
7846;DHT22;3968;51.424;6.788;2022-08-21T08:28:28;20.90;99.90
7846;DHT22;3968;51.424;6.788;2022-08-21T08:30:54;20.80;99.90
7846;DHT22;3968;51.424;6.788;2022-08-21T08:33:21;21.00;99.90
7846;DHT22;3968;51.424;6.788;2022-08-21T08:35:49;21.10;99.90
7846;DHT22;3968;51.424;6.788;2022-08-21T08:38:17;21.30;99.90
7846;DHT22;3968;51.424;6.788;2022-08-21T08:43:19;21.30;99.90
7846;DHT22;3968;51.424;6.788;2022-08-21T08:45:48;21.60;99.90
7846;DHT22;3968;51.424;6.788;2022-08-21T08:48:25;21.60;99.90
7846;DHT22;3968;51.424;6.788;2022-08-21T08:50:57;21.80;99.90
7846;DHT22;3968;51.424;6.788;2022-08-21T08:53:28;22.00;99.90
7846;DHT22;3968;51.424;6.788;2022-08-21T08:55:55;22.30;99.90
7846;DHT22;3968;51.424;6.788;2022-08-21T08:58:31;22.10;99.90
7846;DHT22;3968;51.424;6.788;2022-08-21T09:00:58;22.10;99.90
7846;DHT22;3968;51.424;6.788;2022-08-21T09:03:25;21.90;99.90
7846;DHT22;3968;51.424;6.788;2022-08-21T09:06:16;21.70;99.90
7846;DHT22;3968;51.424;6.788;2022-08-21T09:17:34;22.20;99.90
7846;DHT22;3968;51.424;6.788;2022-08-21T09:22:52;22.40;99.90
7846;DHT22;3968;51.424;6.788;2022-08-21T09:25:25;22.50;99.90
7846;DHT22;3968;51.424;6.788;2022-08-21T09:27:52;22.70;99.90
7846;DHT22;3968;51.424;6.788;2022-08-21T09:30:28;23.10;99.90
7846;DHT22;3968;51.424;6.788;2022-08-21T09:32:55;23.60;99.90
7846;DHT22;3968;51.424;6.788;2022-08-21T09:35:22;24.70;99.90
7846;DHT22;3968;51.424;6.788;2022-08-21T09:37:54;25.90;99.90
7846;DHT22;3968;51.424;6.788;2022-08-21T09:43:04;26.00;99.90
7846;DHT22;3968;51.424;6.788;2022-08-21T09:45:31;26.60;99.90
7846;DHT22;3968;51.424;6.788;2022-08-21T09:48:22;27.30;99.90
7846;DHT22;3968;51.424;6.788;2022-08-21T09:50:49;27.80;99.90
7846;DHT22;3968;51.424;6.788;2022-08-21T09:53:27;29.60;93.90
7846;DHT22;3968;51.424;6.788;2022-08-21T09:55:57;31.10;85.70
7846;DHT22;3968;51.424;6.788;2022-08-21T09:58:48;31.50;74.80
7846;DHT22;3968;51.424;6.788;2022-08-21T10:01:20;30.50;74.50
7846;DHT22;3968;51.424;6.788;2022-08-21T10:03:46;30.80;73.10
7846;DHT22;3968;51.424;6.788;2022-08-21T10:06:27;30.60;72.40
7846;DHT22;3968;51.424;6.788;2022-08-21T10:09:12;30.70;70.90
7846;DHT22;3968;51.424;6.788;2022-08-21T10:11:39;30.50;73.50
7846;DHT22;3968;51.424;6.788;2022-08-21T10:17:01;33.50;62.10
7846;DHT22;3968;51.424;6.788;2022-08-21T10:45:01;31.30;59.50
7846;DHT22;3968;51.424;6.788;2022-08-21T10:47:38;32.80;57.90
7846;DHT22;3968;51.424;6.788;2022-08-21T10:50:28;32.70;54.20
7846;DHT22;3968;51.424;6.788;2022-08-21T10:55:44;29.80;60.30
7846;DHT22;3968;51.424;6.788;2022-08-21T10:58:37;29.30;65.10
7846;DHT22;3968;51.424;6.788;2022-08-21T11:01:13;28.70;68.60
7846;DHT22;3968;51.424;6.788;2022-08-21T11:03:45;28.70;70.30
7846;DHT22;3968;51.424;6.788;2022-08-21T11:06:16;28.70;72.00
7846;DHT22;3968;51.424;6.788;2022-08-21T11:08:47;28.70;72.10
7846;DHT22;3968;51.424;6.788;2022-08-21T11:11:31;28.40;72.10
7846;DHT22;3968;51.424;6.788;2022-08-21T11:14:21;27.90;72.80
7846;DHT22;3968;51.424;6.788;2022-08-21T11:16:57;27.60;75.00
7846;DHT22;3968;51.424;6.788;2022-08-21T11:19:30;27.50;73.10
7846;DHT22;3968;51.424;6.788;2022-08-21T11:24:54;29.30;68.30
7846;DHT22;3968;51.424;6.788;2022-08-21T11:29:57;30.70;61.10
7846;DHT22;3968;51.424;6.788;2022-08-21T11:38:35;33.30;52.50
7846;DHT22;3968;51.424;6.788;2022-08-21T11:47:15;36.20;46.60
7846;DHT22;3968;51.424;6.788;2022-08-21T11:52:28;38.20;42.00
7846;DHT22;3968;51.424;6.788;2022-08-21T11:55:12;37.90;41.10
7846;DHT22;3968;51.424;6.788;2022-08-21T11:57:53;38.00;40.80
7846;DHT22;3968;51.424;6.788;2022-08-21T12:00:26;37.90;40.30
7846;DHT22;3968;51.424;6.788;2022-08-21T12:03:04;38.40;38.60
7846;DHT22;3968;51.424;6.788;2022-08-21T12:05:36;38.70;37.50
7846;DHT22;3968;51.424;6.788;2022-08-21T12:11:10;38.20;37.10
7846;DHT22;3968;51.424;6.788;2022-08-21T12:13:39;36.00;38.50
7846;DHT22;3968;51.424;6.788;2022-08-21T12:16:14;36.60;39.10
7846;DHT22;3968;51.424;6.788;2022-08-21T12:18:41;35.50;39.00
7846;DHT22;3968;51.424;6.788;2022-08-21T12:21:21;35.30;39.60
7846;DHT22;3968;51.424;6.788;2022-08-21T12:24:03;36.00;39.90
7846;DHT22;3968;51.424;6.788;2022-08-21T12:29:22;38.60;36.40
7846;DHT22;3968;51.424;6.788;2022-08-21T12:32:04;39.10;35.70
7846;DHT22;3968;51.424;6.788;2022-08-21T12:34:48;37.70;35.10
7846;DHT22;3968;51.424;6.788;2022-08-21T12:39:48;35.90;36.70
7846;DHT22;3968;51.424;6.788;2022-08-21T12:42:24;36.20;37.00
7846;DHT22;3968;51.424;6.788;2022-08-21T12:44:57;36.70;37.80
7846;DHT22;3968;51.424;6.788;2022-08-21T12:47:43;37.10;36.80
7846;DHT22;3968;51.424;6.788;2022-08-21T12:50:17;37.10;35.80
7846;DHT22;3968;51.424;6.788;2022-08-21T12:52:51;37.90;34.80
7846;DHT22;3968;51.424;6.788;2022-08-21T12:55:27;38.50;34.50
7846;DHT22;3968;51.424;6.788;2022-08-21T12:57:53;38.30;34.60
7846;DHT22;3968;51.424;6.788;2022-08-21T13:00:23;38.40;34.00
7846;DHT22;3968;51.424;6.788;2022-08-21T13:02:51;37.40;35.10
7846;DHT22;3968;51.424;6.788;2022-08-21T13:07:51;36.00;37.10
7846;DHT22;3968;51.424;6.788;2022-08-21T13:10:36;36.80;35.70
7846;DHT22;3968;51.424;6.788;2022-08-21T13:13:20;37.00;35.20
7846;DHT22;3968;51.424;6.788;2022-08-21T13:15:47;36.10;36.20
7846;DHT22;3968;51.424;6.788;2022-08-21T13:18:24;36.30;36.00
7846;DHT22;3968;51.424;6.788;2022-08-21T13:20:51;35.00;36.70
7846;DHT22;3968;51.424;6.788;2022-08-21T13:23:29;34.00;39.10
7846;DHT22;3968;51.424;6.788;2022-08-21T13:25:55;33.70;38.70
7846;DHT22;3968;51.424;6.788;2022-08-21T13:28:22;32.20;40.10
7846;DHT22;3968;51.424;6.788;2022-08-21T13:30:51;31.10;42.30
7846;DHT22;3968;51.424;6.788;2022-08-21T13:33:19;30.20;44.30
7846;DHT22;3968;51.424;6.788;2022-08-21T13:36:05;29.80;45.60
7846;DHT22;3968;51.424;6.788;2022-08-21T13:38:34;29.40;46.60
7846;DHT22;3968;51.424;6.788;2022-08-21T13:43:48;29.50;47.20
7846;DHT22;3968;51.424;6.788;2022-08-21T13:46:14;30.10;44.90
7846;DHT22;3968;51.424;6.788;2022-08-21T13:48:41;30.20;44.90
7846;DHT22;3968;51.424;6.788;2022-08-21T13:51:09;29.80;44.70
7846;DHT22;3968;51.424;6.788;2022-08-21T13:56:06;29.90;47.90
7846;DHT22;3968;51.424;6.788;2022-08-21T13:58:46;30.00;47.90
7846;DHT22;3968;51.424;6.788;2022-08-21T14:01:34;29.70;48.50
7846;DHT22;3968;51.424;6.788;2022-08-21T14:04:16;29.50;48.80
7846;DHT22;3968;51.424;6.788;2022-08-21T14:06:45;29.20;47.20
7846;DHT22;3968;51.424;6.788;2022-08-21T14:09:40;28.90;46.20
7846;DHT22;3968;51.424;6.788;2022-08-21T14:12:26;28.90;47.90
7846;DHT22;3968;51.424;6.788;2022-08-21T14:14:55;28.80;47.90
7846;DHT22;3968;51.424;6.788;2022-08-21T14:17:36;28.70;46.30
7846;DHT22;3968;51.424;6.788;2022-08-21T14:20:08;28.80;47.50
7846;DHT22;3968;51.424;6.788;2022-08-21T14:22:39;28.50;48.50
7846;DHT22;3968;51.424;6.788;2022-08-21T14:25:08;28.40;50.70
7846;DHT22;3968;51.424;6.788;2022-08-21T14:27:58;28.40;52.00
7846;DHT22;3968;51.424;6.788;2022-08-21T14:30:37;28.30;53.20
7846;DHT22;3968;51.424;6.788;2022-08-21T14:33:07;28.60;54.30
7846;DHT22;3968;51.424;6.788;2022-08-21T14:35:34;29.20;54.80
7846;DHT22;3968;51.424;6.788;2022-08-21T14:38:00;30.10;53.70
7846;DHT22;3968;51.424;6.788;2022-08-21T14:40:26;30.10;52.80
7846;DHT22;3968;51.424;6.788;2022-08-21T14:43:00;29.60;52.40
7846;DHT22;3968;51.424;6.788;2022-08-21T14:45:30;29.60;52.50
7846;DHT22;3968;51.424;6.788;2022-08-21T14:47:57;30.10;52.70
7846;DHT22;3968;51.424;6.788;2022-08-21T14:50:24;30.20;52.60
7846;DHT22;3968;51.424;6.788;2022-08-21T14:52:49;30.40;52.20
7846;DHT22;3968;51.424;6.788;2022-08-21T14:55:17;30.10;52.50
7846;DHT22;3968;51.424;6.788;2022-08-21T14:57:47;29.50;53.80
7846;DHT22;3968;51.424;6.788;2022-08-21T15:00:17;29.20;54.10
7846;DHT22;3968;51.424;6.788;2022-08-21T15:02:45;28.90;54.30
7846;DHT22;3968;51.424;6.788;2022-08-21T15:05:12;28.80;54.50
7846;DHT22;3968;51.424;6.788;2022-08-21T15:07:38;28.70;55.50
7846;DHT22;3968;51.424;6.788;2022-08-21T15:10:05;28.80;55.70
7846;DHT22;3968;51.424;6.788;2022-08-21T15:12:31;28.80;55.20
7846;DHT22;3968;51.424;6.788;2022-08-21T15:14:57;28.70;55.70
7846;DHT22;3968;51.424;6.788;2022-08-21T15:17:23;28.70;55.20
7846;DHT22;3968;51.424;6.788;2022-08-21T15:19:49;28.70;54.20
7846;DHT22;3968;51.424;6.788;2022-08-21T15:22:15;28.90;53.70
7846;DHT22;3968;51.424;6.788;2022-08-21T15:24:41;29.20;53.20
7846;DHT22;3968;51.424;6.788;2022-08-21T15:27:08;29.40;53.40
7846;DHT22;3968;51.424;6.788;2022-08-21T15:29:34;29.20;53.50
7846;DHT22;3968;51.424;6.788;2022-08-21T15:32:02;28.70;54.10
7846;DHT22;3968;51.424;6.788;2022-08-21T15:34:30;28.60;54.70
7846;DHT22;3968;51.424;6.788;2022-08-21T15:36:57;28.90;53.90
7846;DHT22;3968;51.424;6.788;2022-08-21T15:39:24;29.30;53.80
7846;DHT22;3968;51.424;6.788;2022-08-21T15:41:50;29.20;53.60
7846;DHT22;3968;51.424;6.788;2022-08-21T15:44:16;29.30;52.80
7846;DHT22;3968;51.424;6.788;2022-08-21T15:46:42;29.30;53.20
7846;DHT22;3968;51.424;6.788;2022-08-21T15:49:10;29.20;53.50
7846;DHT22;3968;51.424;6.788;2022-08-21T15:51:36;29.20;53.50
7846;DHT22;3968;51.424;6.788;2022-08-21T15:54:01;29.10;53.80
7846;DHT22;3968;51.424;6.788;2022-08-21T15:56:36;28.90;52.70
7846;DHT22;3968;51.424;6.788;2022-08-21T15:59:08;28.40;52.40
7846;DHT22;3968;51.424;6.788;2022-08-21T16:01:37;28.10;53.20
7846;DHT22;3968;51.424;6.788;2022-08-21T16:04:04;27.90;53.70
7846;DHT22;3968;51.424;6.788;2022-08-21T16:06:30;27.80;53.80
7846;DHT22;3968;51.424;6.788;2022-08-21T16:08:56;27.70;54.50
7846;DHT22;3968;51.424;6.788;2022-08-21T16:11:21;27.40;55.10
7846;DHT22;3968;51.424;6.788;2022-08-21T16:13:48;27.50;54.50
7846;DHT22;3968;51.424;6.788;2022-08-21T16:16:20;27.40;53.80
7846;DHT22;3968;51.424;6.788;2022-08-21T16:18:46;27.10;54.80
7846;DHT22;3968;51.424;6.788;2022-08-21T16:21:13;27.10;55.50
7846;DHT22;3968;51.424;6.788;2022-08-21T16:23:39;27.00;55.50
7846;DHT22;3968;51.424;6.788;2022-08-21T16:26:07;26.80;55.40
7846;DHT22;3968;51.424;6.788;2022-08-21T16:28:35;26.80;55.90
7846;DHT22;3968;51.424;6.788;2022-08-21T16:31:02;26.80;55.60
7846;DHT22;3968;51.424;6.788;2022-08-21T16:33:45;26.90;55.20
7846;DHT22;3968;51.424;6.788;2022-08-21T16:36:13;26.90;56.10
7846;DHT22;3968;51.424;6.788;2022-08-21T16:38:40;26.80;56.80
7846;DHT22;3968;51.424;6.788;2022-08-21T16:41:10;26.60;57.00
7846;DHT22;3968;51.424;6.788;2022-08-21T16:43:38;26.60;58.10
7846;DHT22;3968;51.424;6.788;2022-08-21T16:46:05;26.60;57.50
7846;DHT22;3968;51.424;6.788;2022-08-21T16:48:31;26.60;57.80
7846;DHT22;3968;51.424;6.788;2022-08-21T16:50:57;26.60;57.60
7846;DHT22;3968;51.424;6.788;2022-08-21T16:53:23;26.70;56.70
7846;DHT22;3968;51.424;6.788;2022-08-21T16:55:52;26.60;56.30
7846;DHT22;3968;51.424;6.788;2022-08-21T16:58:31;26.50;56.30
7846;DHT22;3968;51.424;6.788;2022-08-21T17:00:59;26.30;55.80
7846;DHT22;3968;51.424;6.788;2022-08-21T17:03:30;26.30;56.60
7846;DHT22;3968;51.424;6.788;2022-08-21T17:05:57;26.30;55.50
7846;DHT22;3968;51.424;6.788;2022-08-21T17:08:23;26.20;55.40
7846;DHT22;3968;51.424;6.788;2022-08-21T17:10:49;26.00;55.40
7846;DHT22;3968;51.424;6.788;2022-08-21T17:13:16;25.90;55.80
7846;DHT22;3968;51.424;6.788;2022-08-21T17:15:44;25.90;55.20
7846;DHT22;3968;51.424;6.788;2022-08-21T17:18:13;25.90;54.50
7846;DHT22;3968;51.424;6.788;2022-08-21T17:20:39;25.80;54.90
7846;DHT22;3968;51.424;6.788;2022-08-21T17:23:05;25.80;54.20
7846;DHT22;3968;51.424;6.788;2022-08-21T17:25:32;25.70;53.40
7846;DHT22;3968;51.424;6.788;2022-08-21T17:27:58;25.70;53.40
7846;DHT22;3968;51.424;6.788;2022-08-21T17:30:24;25.60;54.30
7846;DHT22;3968;51.424;6.788;2022-08-21T17:32:52;25.70;55.10
7846;DHT22;3968;51.424;6.788;2022-08-21T17:35:19;25.60;55.70
7846;DHT22;3968;51.424;6.788;2022-08-21T17:37:44;25.50;55.50
7846;DHT22;3968;51.424;6.788;2022-08-21T17:40:12;25.50;56.60